createdAt,value
2018-04-05T00:01:49.216Z,2.47
2018-04-05T00:04:18.071Z,2.50
2018-04-05T00:06:46.934Z,2.80
2018-04-05T00:09:15.798Z,2.57
2018-04-05T00:11:44.648Z,2.53
2018-04-05T00:14:13.523Z,2.60
2018-04-05T00:16:42.358Z,2.90
2018-04-05T00:19:11.228Z,2.20
2018-04-05T00:21:40.108Z,2.40
2018-04-05T00:24:10.572Z,2.60
2018-04-05T00:26:39.439Z,2.60
2018-04-05T00:29:08.330Z,2.43
2018-04-05T00:31:37.172Z,2.27
2018-04-05T00:34:06.040Z,2.40
2018-04-05T00:36:34.901Z,2.33
2018-04-05T00:39:04.696Z,2.37
2018-04-05T00:41:33.550Z,2.70
2018-04-05T00:44:02.417Z,2.67
2018-04-05T00:46:32.668Z,2.40
2018-04-05T00:49:02.530Z,2.57
2018-04-05T00:51:31.390Z,2.57
2018-04-05T00:54:00.244Z,3.03
2018-04-05T00:56:29.076Z,2.80
2018-04-05T00:58:57.971Z,2.53
2018-04-05T01:01:26.809Z,2.87
2018-04-05T01:03:56.336Z,2.60
2018-04-05T01:06:25.787Z,3.03
2018-04-05T01:08:54.757Z,2.70
2018-04-05T01:11:23.700Z,3.10
2018-04-05T01:13:52.524Z,3.33
2018-04-05T01:16:22.027Z,3.13
2018-04-05T01:18:51.656Z,3.30
2018-04-05T01:21:21.420Z,2.97
2018-04-05T01:23:50.254Z,3.60
2018-04-05T01:26:19.103Z,3.13
2018-04-05T01:28:47.971Z,3.30
2018-04-05T01:31:16.812Z,3.17
2018-04-05T01:33:51.537Z,3.57
2018-04-05T01:36:20.374Z,3.40
2018-04-05T01:38:50.164Z,3.27
2018-04-05T01:41:19.584Z,3.50
2018-04-05T01:43:48.646Z,3.60
2018-04-05T01:46:17.486Z,3.80
2018-04-05T01:48:46.350Z,3.13
2018-04-05T01:51:15.336Z,3.20
2018-04-05T01:53:44.201Z,3.27
2018-04-05T01:56:13.075Z,3.60
2018-04-05T01:58:42.027Z,3.90
2018-04-05T02:01:11.137Z,3.50
2018-04-05T02:03:39.999Z,4.00
2018-04-05T02:06:09.103Z,3.77
2018-04-05T02:08:37.945Z,4.37
2018-04-05T02:11:06.813Z,3.77
2018-04-05T02:13:35.657Z,4.23
2018-04-05T02:16:04.552Z,4.33
2018-04-05T02:18:34.161Z,3.63
2018-04-05T02:21:03.069Z,4.13
2018-04-05T02:23:31.936Z,4.13
2018-04-05T02:26:00.770Z,4.27
2018-04-05T02:28:29.623Z,4.90
2018-04-05T02:30:58.507Z,4.43
2018-04-05T02:33:27.440Z,4.27
2018-04-05T02:35:56.287Z,4.20
2018-04-05T02:38:25.180Z,4.20
2018-04-05T02:40:54.396Z,4.40
2018-04-05T02:43:23.251Z,4.40
2018-04-05T02:45:52.101Z,4.13
2018-04-05T02:48:20.957Z,3.93
2018-04-05T02:50:50.964Z,3.80
2018-04-05T02:53:19.827Z,4.20
2018-04-05T02:55:48.678Z,3.90
2018-04-05T02:58:17.527Z,4.07
2018-04-05T03:00:46.719Z,4.57
2018-04-05T03:03:15.647Z,3.93
2018-04-05T03:05:44.497Z,4.50
2018-04-05T03:08:13.366Z,5.23
2018-04-05T03:10:42.217Z,4.00
2018-04-05T03:13:11.075Z,4.43
2018-04-05T03:15:40.871Z,5.40
2018-04-05T03:18:09.923Z,4.33
2018-04-05T03:20:38.770Z,4.57
2018-04-05T03:23:07.917Z,4.40
2018-04-05T03:25:36.557Z,3.93
2018-04-05T03:28:06.218Z,3.93
2018-04-05T03:30:36.358Z,4.40
2018-04-05T03:33:05.213Z,4.60
2018-04-05T03:35:34.095Z,3.80
2018-04-05T03:38:03.534Z,4.10
2018-04-05T03:40:32.633Z,4.47
2018-04-05T03:43:02.091Z,4.17
2018-04-05T03:45:30.952Z,4.33
2018-04-05T03:47:59.826Z,4.47
2018-04-05T03:50:28.671Z,4.77
2018-04-05T03:52:57.565Z,4.50
2018-04-05T03:55:26.926Z,4.30
2018-04-05T03:57:56.497Z,4.70
2018-04-05T04:00:25.368Z,4.40
2018-04-05T04:02:54.238Z,5.07
2018-04-05T04:05:23.771Z,4.93
2018-04-05T04:07:52.638Z,4.70
2018-04-05T04:10:22.150Z,4.97
2018-04-05T04:12:51.024Z,4.90
2018-04-05T04:15:20.732Z,4.50
2018-04-05T04:17:50.303Z,5.37
2018-04-05T04:20:19.249Z,5.03
2018-04-05T04:22:48.132Z,5.20
2018-04-05T04:25:18.108Z,4.10
2018-04-05T04:27:46.950Z,4.57
2018-04-05T04:30:15.856Z,4.57
2018-04-05T04:32:44.754Z,4.40
2018-04-05T04:35:13.594Z,4.00
2018-04-05T04:37:43.401Z,4.50
2018-04-05T04:40:12.252Z,5.03
2018-04-05T04:42:41.102Z,5.00
2018-04-05T04:45:09.991Z,5.37
2018-04-05T04:47:38.833Z,4.63
2018-04-05T04:50:08.496Z,5.00
2018-04-05T04:52:38.026Z,4.60
2018-04-05T04:55:06.868Z,5.27
2018-04-05T04:57:35.772Z,4.83
2018-04-05T05:00:04.895Z,4.90
2018-04-05T05:02:33.744Z,4.57
2018-04-05T05:05:02.599Z,5.43
2018-04-05T05:07:31.492Z,5.23
2018-04-05T05:10:00.328Z,5.37
2018-04-05T05:12:29.193Z,5.00
2018-04-05T05:14:58.127Z,5.63
2018-04-05T05:17:26.912Z,5.43
2018-04-05T05:19:55.747Z,5.50
2018-04-05T05:22:24.622Z,5.23
2018-04-05T05:24:53.473Z,5.93
2018-04-05T05:27:23.248Z,5.83
2018-04-05T05:29:52.124Z,7.57
2018-04-05T05:32:20.973Z,6.40
2018-04-05T05:34:50.006Z,6.23
2018-04-05T05:37:19.486Z,6.13
2018-04-05T05:39:48.327Z,6.63
2018-04-05T05:42:17.556Z,6.87
2018-04-05T05:44:46.396Z,7.03
2018-04-05T05:47:15.485Z,6.90
2018-04-05T05:49:45.159Z,7.27
2018-04-05T05:52:14.009Z,7.90
2018-04-05T05:54:43.366Z,7.33
2018-04-05T05:57:12.243Z,8.10
2018-04-05T05:59:41.087Z,6.20
2018-04-05T06:02:13.379Z,5.70
2018-04-05T06:04:42.243Z,5.63
2018-04-05T06:07:11.080Z,5.80
2018-04-05T06:09:40.763Z,5.30
2018-04-05T06:12:10.487Z,5.70
2018-04-05T06:14:40.023Z,5.30
2018-04-05T06:17:10.045Z,4.87
2018-04-05T06:19:38.899Z,5.53
2018-04-05T06:22:07.769Z,4.77
2018-04-05T06:24:36.647Z,5.03
2018-04-05T06:27:05.521Z,5.23
2018-04-05T06:29:34.369Z,4.63
2018-04-05T06:32:03.261Z,4.67
2018-04-05T06:34:32.096Z,4.17
2018-04-05T06:37:01.699Z,3.93
2018-04-05T06:39:30.927Z,4.17
2018-04-05T06:41:59.777Z,4.57
2018-04-05T06:44:29.564Z,4.40
2018-04-05T06:46:58.484Z,4.13
2018-04-05T06:49:32.818Z,4.53
2018-04-05T06:52:03.231Z,4.17
2018-04-05T06:54:33.893Z,4.33
2018-04-05T06:57:05.548Z,4.63
2018-04-05T06:59:38.638Z,5.13
2018-04-05T07:02:07.509Z,5.80
2018-04-05T07:04:38.462Z,6.60
2018-04-05T07:07:07.341Z,7.27
2018-04-05T07:09:36.182Z,7.07
2018-04-05T07:12:05.044Z,7.17
2018-04-05T07:14:33.939Z,8.63
2018-04-05T07:17:02.846Z,7.40
2018-04-05T07:19:31.691Z,7.93
2018-04-05T07:22:05.992Z,7.77
2018-04-05T07:24:35.880Z,7.83
2018-04-05T07:27:06.378Z,8.17
2018-04-05T07:29:35.220Z,8.10
2018-04-05T07:32:04.076Z,7.30
2018-04-05T07:34:32.982Z,7.00
2018-04-05T07:37:01.870Z,7.30
2018-04-05T07:39:30.738Z,7.30
2018-04-05T07:41:59.664Z,8.00
2018-04-05T07:44:29.040Z,6.97
2018-04-05T07:46:57.878Z,7.27
2018-04-05T07:49:27.580Z,6.80
2018-04-05T07:51:56.414Z,6.13
2018-04-05T07:54:25.301Z,5.53
2018-04-05T07:56:54.162Z,5.40
2018-04-05T07:59:23.930Z,4.63
2018-04-05T08:01:52.766Z,4.50
2018-04-05T08:04:21.643Z,4.10
2018-04-05T08:06:50.478Z,3.70
2018-04-05T08:09:19.332Z,3.60
2018-04-05T08:11:48.199Z,3.40
2018-04-05T08:14:17.034Z,2.73
2018-04-05T08:16:45.901Z,2.50
2018-04-05T08:19:14.773Z,2.40
2018-04-05T08:21:44.303Z,2.40
2018-04-05T08:24:13.151Z,2.10
2018-04-05T08:26:42.032Z,1.80
2018-04-05T08:29:10.862Z,2.10
2018-04-05T08:31:39.699Z,1.87
2018-04-05T08:34:09.027Z,1.83
2018-04-05T08:36:37.893Z,1.50
2018-04-05T08:39:06.774Z,1.67
2018-04-05T08:41:35.683Z,1.80
2018-04-05T08:44:04.687Z,2.17
2018-04-05T08:46:34.199Z,2.10
2018-04-05T08:49:03.945Z,2.00
2018-04-05T08:51:32.807Z,2.07
2018-04-05T08:54:01.653Z,2.20
2018-04-05T08:56:30.525Z,2.07
2018-04-05T08:58:59.386Z,2.47
2018-04-05T09:01:29.136Z,2.23
2018-04-05T09:03:58.011Z,2.00
2018-04-05T09:06:26.870Z,1.97
2018-04-05T09:08:55.719Z,2.40
2018-04-05T09:11:24.561Z,2.10
2018-04-05T09:13:53.413Z,2.53
2018-04-05T09:16:22.296Z,2.20
2018-04-05T09:18:51.109Z,1.90
2018-04-05T09:21:19.943Z,2.30
2018-04-05T09:23:49.137Z,2.53
2018-04-05T09:26:18.005Z,2.50
2018-04-05T09:28:46.837Z,2.30
2018-04-05T09:31:16.531Z,2.63
2018-04-05T09:33:45.400Z,2.30
2018-04-05T09:36:14.256Z,2.37
2018-04-05T09:38:43.118Z,2.03
2018-04-05T09:41:11.982Z,2.57
2018-04-05T09:43:40.823Z,2.57
2018-04-05T09:46:10.506Z,3.00
2018-04-05T09:48:39.361Z,2.70
2018-04-05T09:51:09.480Z,2.70
2018-04-05T09:53:38.380Z,2.00
2018-04-05T09:56:07.208Z,2.33
2018-04-05T09:58:36.038Z,2.10
2018-04-05T10:01:05.604Z,1.67
2018-04-05T10:03:34.468Z,1.90
2018-04-05T10:06:04.232Z,1.80
2018-04-05T10:08:33.091Z,1.93
2018-04-05T10:11:02.604Z,1.70
2018-04-05T10:13:32.429Z,1.73
2018-04-05T10:16:01.308Z,2.00
2018-04-05T10:18:30.176Z,2.10
2018-04-05T10:20:59.355Z,1.83
2018-04-05T10:23:28.228Z,2.70
2018-04-05T10:25:57.085Z,2.67
2018-04-05T10:28:25.971Z,3.20
2018-04-05T10:30:55.522Z,2.10
2018-04-05T10:33:24.381Z,2.17
2018-04-05T10:35:53.224Z,2.37
2018-04-05T10:38:22.092Z,2.10
2018-04-05T10:40:51.844Z,2.40
2018-04-05T10:43:20.716Z,2.00
2018-04-05T10:45:50.424Z,2.33
2018-04-05T10:48:19.268Z,2.10
2018-04-05T10:50:48.405Z,2.20
2018-04-05T10:53:18.025Z,2.37
2018-04-05T10:55:46.862Z,1.80
2018-04-05T10:58:15.785Z,1.90
2018-04-05T11:00:44.646Z,1.77
2018-04-05T11:03:13.490Z,2.30
2018-04-05T11:05:42.450Z,2.00
2018-04-05T11:08:11.310Z,2.73
2018-04-05T11:10:40.159Z,2.27
2018-04-05T11:13:09.539Z,1.90
2018-04-05T11:15:38.399Z,1.67
2018-04-05T11:18:08.396Z,1.80
2018-04-05T11:20:37.244Z,2.60
2018-04-05T11:23:06.101Z,1.70
2018-04-05T11:25:34.973Z,1.90
2018-04-05T11:28:03.844Z,2.40
2018-04-05T11:30:32.728Z,2.27
2018-04-05T11:33:01.593Z,2.00
2018-04-05T11:35:30.438Z,2.13
2018-04-05T11:37:59.313Z,2.20
2018-04-05T11:40:28.513Z,2.40
2018-04-05T11:42:57.373Z,2.00
2018-04-05T11:45:26.226Z,2.00
2018-04-05T11:47:55.102Z,1.93
2018-04-05T11:50:23.952Z,1.70
2018-04-05T11:52:52.897Z,1.93
2018-04-05T11:55:22.253Z,1.67
2018-04-05T11:57:51.139Z,2.23
2018-04-05T12:00:20.101Z,1.97
2018-04-05T12:02:49.859Z,2.10
2018-04-05T12:05:18.795Z,2.30
2018-04-05T12:07:47.656Z,2.03
2018-04-05T12:10:16.535Z,1.83
2018-04-05T12:12:46.495Z,2.73
2018-04-05T12:15:15.565Z,2.23
2018-04-05T12:17:44.673Z,1.97
2018-04-05T12:20:13.514Z,2.00
2018-04-05T12:22:43.107Z,1.80
2018-04-05T12:25:12.040Z,2.27
2018-04-05T12:27:40.946Z,1.77
2018-04-05T12:30:10.157Z,2.17
2018-04-05T12:32:39.054Z,1.90
2018-04-05T12:35:07.901Z,2.37
2018-04-05T12:37:36.771Z,2.10
2018-04-05T12:40:05.601Z,2.13
2018-04-05T12:42:34.443Z,2.20
2018-04-05T12:45:03.345Z,1.83
2018-04-05T12:47:32.187Z,2.13
2018-04-05T12:50:03.229Z,1.60
2018-04-05T12:52:32.881Z,2.17
2018-04-05T12:55:02.604Z,1.70
2018-04-05T12:57:31.451Z,2.10
2018-04-05T13:00:00.386Z,2.73
2018-04-05T13:02:29.221Z,2.20
2018-04-05T13:04:58.074Z,2.17
2018-04-05T13:07:27.277Z,2.20
2018-04-05T13:09:56.134Z,2.50
2018-04-05T13:12:24.996Z,2.20
2018-04-05T13:14:53.857Z,1.83
2018-04-05T13:17:23.644Z,1.33
2018-04-05T13:19:52.523Z,1.80
2018-04-05T13:22:21.388Z,1.43
2018-04-05T13:24:50.264Z,1.90
2018-04-05T13:27:19.097Z,1.40
2018-04-05T13:29:47.964Z,2.03
2018-04-05T13:32:17.424Z,1.87
2018-04-05T13:34:46.277Z,1.60
2018-04-05T13:37:15.193Z,1.97
2018-04-05T13:39:44.039Z,2.07
2018-04-05T13:42:13.812Z,2.23
2018-04-05T13:44:42.950Z,1.73
2018-04-05T13:47:11.814Z,2.17
2018-04-05T13:49:40.659Z,2.07
2018-04-05T13:52:10.198Z,2.07
2018-04-05T13:54:39.040Z,1.80
2018-04-05T13:57:07.902Z,1.97
2018-04-05T13:59:36.794Z,2.07
2018-04-05T14:02:06.134Z,1.90
2018-04-05T14:04:35.032Z,1.93
2018-04-05T14:07:03.906Z,2.00
2018-04-05T14:09:32.795Z,1.90
2018-04-05T14:12:01.663Z,1.67
2018-04-05T14:14:30.708Z,1.90
2018-04-05T14:16:59.557Z,2.07
2018-04-05T14:19:28.918Z,1.50
2018-04-05T14:21:57.879Z,1.70
2018-04-05T14:24:26.840Z,1.93
2018-04-05T14:26:55.692Z,1.87
2018-04-05T14:29:24.548Z,1.87
2018-04-05T14:31:53.529Z,2.10
2018-04-05T14:34:23.096Z,2.17
2018-04-05T14:36:51.943Z,1.80
2018-04-05T14:39:20.854Z,2.37
2018-04-05T14:41:50.695Z,2.40
2018-04-05T14:44:19.583Z,1.93
2018-04-05T14:46:49.154Z,2.30
2018-04-05T14:49:18.048Z,2.30
2018-04-05T14:51:47.836Z,2.27
2018-04-05T14:54:16.746Z,2.67
2018-04-05T14:56:45.609Z,2.40
2018-04-05T14:59:14.453Z,2.47
2018-04-05T15:01:44.104Z,2.07
2018-04-05T15:04:13.633Z,2.33
2018-04-05T15:06:43.127Z,2.93
2018-04-05T15:09:13.271Z,2.37
2018-04-05T15:11:42.127Z,2.70
2018-04-05T15:14:10.983Z,3.73
2018-04-05T15:16:39.851Z,2.47
2018-04-05T15:19:08.985Z,2.67
2018-04-05T15:21:37.853Z,2.53
2018-04-05T15:24:06.717Z,2.20
2018-04-05T15:26:35.569Z,2.33
2018-04-05T15:29:04.452Z,2.83
2018-04-05T15:31:33.339Z,2.83
2018-04-05T15:34:06.582Z,2.60
2018-04-05T15:36:36.255Z,2.50
2018-04-05T15:39:05.127Z,2.83
2018-04-05T15:41:33.989Z,2.40
2018-04-05T15:44:03.857Z,3.20
2018-04-05T15:46:32.700Z,3.10
2018-04-05T15:49:01.550Z,3.20
2018-04-05T15:51:30.428Z,3.07
2018-04-05T15:54:00.252Z,2.90
2018-04-05T15:56:29.101Z,3.03
2018-04-05T15:58:58.105Z,2.53
2018-04-05T16:01:27.697Z,3.17
2018-04-05T16:03:57.200Z,2.70
2018-04-05T16:06:26.065Z,3.03
2018-04-05T16:08:56.469Z,2.67
2018-04-05T16:11:25.343Z,3.57
2018-04-05T16:14:01.274Z,3.03
2018-04-05T16:16:30.139Z,2.70
2018-04-05T16:18:58.980Z,2.70
2018-04-05T16:21:27.968Z,2.60
2018-04-05T16:23:56.871Z,3.00
2018-04-05T16:26:25.723Z,2.73
2018-04-05T16:28:56.298Z,2.60
2018-04-05T16:31:25.210Z,2.33
2018-04-05T16:33:54.066Z,2.67
2018-04-05T16:36:23.627Z,2.23
2018-04-05T16:38:52.511Z,2.60
2018-04-05T16:41:21.357Z,2.60
2018-04-05T16:43:50.223Z,2.70
2018-04-05T16:46:19.684Z,2.27
2018-04-05T16:48:49.032Z,2.50
2018-04-05T16:51:17.909Z,2.70
2018-04-05T16:53:51.419Z,3.10
2018-04-05T16:56:21.592Z,2.83
2018-04-05T16:58:50.625Z,2.50
2018-04-05T17:01:20.289Z,2.77
2018-04-05T17:03:49.189Z,2.97
2018-04-05T17:06:18.185Z,2.60
2018-04-05T17:08:47.067Z,2.13
2018-04-05T17:11:15.922Z,2.03
2018-04-05T17:13:44.839Z,2.93
2018-04-05T17:18:47.582Z,3.10
2018-04-05T17:21:16.427Z,2.20
2018-04-05T17:23:45.748Z,2.30
2018-04-05T17:26:18.885Z,2.63
2018-04-05T17:28:49.113Z,2.30
2018-04-05T17:31:18.685Z,3.10
2018-04-05T17:33:49.694Z,2.77
2018-04-05T17:36:19.146Z,2.20
2018-04-05T17:38:48.029Z,2.20
2018-04-05T17:41:17.381Z,2.70
2018-04-05T17:43:46.888Z,2.00
2018-04-05T17:46:15.725Z,2.40
2018-04-05T17:48:44.975Z,2.20
2018-04-05T17:51:13.848Z,2.40
2018-04-05T17:53:42.689Z,1.93
2018-04-05T17:56:12.484Z,2.10
2018-04-05T17:58:41.330Z,2.10
2018-04-05T18:01:10.209Z,2.60
2018-04-05T18:03:39.069Z,2.03
2018-04-05T18:06:09.658Z,2.30
2018-04-05T18:08:38.537Z,2.13
2018-04-05T18:11:07.752Z,2.47
2018-04-05T18:13:36.610Z,2.10
2018-04-05T18:16:05.485Z,2.23
2018-04-05T18:18:34.365Z,1.90
2018-04-05T18:21:03.269Z,2.33
2018-04-05T18:23:32.201Z,2.30
2018-04-05T18:26:02.279Z,2.20
2018-04-05T18:28:31.982Z,2.73
2018-04-05T18:31:01.851Z,2.30
2018-04-05T18:33:30.926Z,2.40
2018-04-05T18:35:59.780Z,2.27
2018-04-05T18:38:28.648Z,2.43
2018-04-05T18:40:57.539Z,2.30
2018-04-05T18:43:26.390Z,2.27
2018-04-05T18:45:55.260Z,2.57
2018-04-05T18:48:24.184Z,2.70
2018-04-05T18:50:53.023Z,2.37
2018-04-05T18:53:21.941Z,2.60
2018-04-05T18:55:50.837Z,2.20
2018-04-05T18:58:19.686Z,2.30
2018-04-05T19:00:48.829Z,2.27
2018-04-05T19:03:17.693Z,2.13
2018-04-05T19:05:46.771Z,2.60
2018-04-05T19:08:15.642Z,2.77
2018-04-05T19:10:44.603Z,2.70
2018-04-05T19:13:13.438Z,2.50
2018-04-05T19:15:42.923Z,2.33
2018-04-05T19:18:11.788Z,2.53
2018-04-05T19:20:40.632Z,2.60
2018-04-05T19:23:10.151Z,2.47
2018-04-05T19:25:39.022Z,2.70
2018-04-05T19:28:07.890Z,3.07
2018-04-05T19:30:36.740Z,2.57
2018-04-05T19:33:05.954Z,2.90
2018-04-05T19:35:34.797Z,2.60
2018-04-05T19:38:03.652Z,2.97
2018-04-05T19:40:32.596Z,2.47
2018-04-05T19:43:02.518Z,2.60
2018-04-05T19:45:31.353Z,2.90
2018-04-05T19:48:00.266Z,3.13
2018-04-05T19:50:29.096Z,2.43
2018-04-05T19:52:57.952Z,2.23
2018-04-05T19:55:26.860Z,2.80
2018-04-05T19:57:55.694Z,2.90
2018-04-05T20:00:24.565Z,2.87
2018-04-05T20:02:53.462Z,3.90
2018-04-05T20:05:22.390Z,4.50
2018-04-05T20:07:51.271Z,5.53
2018-04-05T20:10:20.212Z,3.73
2018-04-05T20:12:49.054Z,3.53
2018-04-05T20:15:18.149Z,3.53
2018-04-05T20:17:47.030Z,5.70
2018-04-05T20:20:15.884Z,3.93
2018-04-05T20:22:44.717Z,3.27
2018-04-05T20:27:47.934Z,3.13
2018-04-05T20:30:17.819Z,2.83
2018-04-05T20:32:46.651Z,2.80
2018-04-05T20:35:15.529Z,2.90
2018-04-05T20:37:44.601Z,3.27
2018-04-05T20:40:13.438Z,3.03
2018-04-05T20:42:42.332Z,3.80
2018-04-05T20:45:11.210Z,3.80
2018-04-05T20:47:40.081Z,4.23
2018-04-05T20:50:09.925Z,5.57
2018-04-05T20:52:38.803Z,4.80
2018-04-05T20:55:09.237Z,7.33
2018-04-05T20:57:38.097Z,7.67
2018-04-05T21:00:06.969Z,7.77
2018-04-05T21:02:36.717Z,9.40
2018-04-05T21:05:06.096Z,8.23
2018-04-05T21:07:34.995Z,7.10
2018-04-05T21:10:03.884Z,6.13
2018-04-05T21:12:32.846Z,6.23
2018-04-05T21:15:01.716Z,6.27
2018-04-05T21:17:30.833Z,5.73
2018-04-05T21:19:59.691Z,5.60
2018-04-05T21:22:28.627Z,5.33
2018-04-05T21:24:58.794Z,6.63
2018-04-05T21:27:29.005Z,7.13
2018-04-05T21:29:57.893Z,7.70
2018-04-05T21:32:26.911Z,9.20
2018-04-05T21:34:57.331Z,7.30
2018-04-05T21:37:26.757Z,5.67
2018-04-05T21:39:58.069Z,5.77
2018-04-05T21:42:28.609Z,5.17
2018-04-05T21:44:57.521Z,4.53
2018-04-05T21:47:26.371Z,5.90
2018-04-05T21:49:55.276Z,5.80
2018-04-05T21:52:24.437Z,4.63
2018-04-05T21:54:53.294Z,4.83
2018-04-05T21:57:22.208Z,4.77
2018-04-05T21:59:51.048Z,4.40
2018-04-05T22:02:19.904Z,4.53
2018-04-05T22:04:49.041Z,4.63
2018-04-05T22:07:17.886Z,4.47
2018-04-05T22:09:46.780Z,5.00
2018-04-05T22:12:15.664Z,5.03
2018-04-05T22:14:44.500Z,6.00
2018-04-05T22:17:14.412Z,4.93
2018-04-05T22:19:44.980Z,4.33
2018-04-05T22:22:13.820Z,4.03
2018-04-05T22:24:42.683Z,4.40
2018-04-05T22:27:11.638Z,4.37
2018-04-05T22:29:40.476Z,4.13
2018-04-05T22:32:10.152Z,3.93
2018-04-05T22:34:39.068Z,4.23
2018-04-05T22:37:07.912Z,4.23
2018-04-05T22:39:36.748Z,3.93
2018-04-05T22:42:05.676Z,3.77
2018-04-05T22:44:34.516Z,3.90
2018-04-05T22:47:03.364Z,4.23
2018-04-05T22:49:32.280Z,4.00
2018-04-05T22:52:01.498Z,4.30
2018-04-05T22:54:30.386Z,4.03
2018-04-05T22:57:00.086Z,4.17
2018-04-05T22:59:29.728Z,3.63
2018-04-05T23:01:58.586Z,4.10
2018-04-05T23:04:27.476Z,4.00
2018-04-05T23:06:59.112Z,4.47
2018-04-05T23:09:29.981Z,4.27
2018-04-05T23:11:58.816Z,4.20
2018-04-05T23:14:27.681Z,4.13
2018-04-05T23:16:56.544Z,4.53
2018-04-05T23:19:25.386Z,4.10
2018-04-05T23:21:54.276Z,4.10
2018-04-05T23:24:23.152Z,4.23
2018-04-05T23:26:52.010Z,4.40
2018-04-05T23:29:20.862Z,4.17
2018-04-05T23:31:49.872Z,4.33
2018-04-05T23:34:19.424Z,4.47
2018-04-05T23:36:48.286Z,4.80
2018-04-05T23:39:17.152Z,4.67
2018-04-05T23:41:46.018Z,4.63
2018-04-05T23:44:14.860Z,4.80
2018-04-05T23:46:44.708Z,4.73
2018-04-05T23:49:13.543Z,5.17
2018-04-05T23:51:50.392Z,5.13
2018-04-05T23:54:19.292Z,4.77
2018-04-05T23:56:48.150Z,5.83
2018-04-05T23:59:17.521Z,5.00
